Create Tblcommutelog Verified Points Advance Search
| # | Trip ID | Id Commuter | Trip Date | Trip Num | Current Lat | Current Lng | Delta Distance | Current Time | Activity | Activity Confidence | Current Speed | |
|---|---|---|---|---|---|---|---|---|---|---|---|---|
| 73521 | 250702_785264_16653381_1611 | 785264 | (not set) | (not set) | 38.960699815215 | -77.420816527097 | 30.7474 | 2025-07-02 21:11:42.594 | on_foot | 100 | 0.76890752545889 | |
| 73522 | 250702_769309_16636345_1645 | 769309 | (not set) | (not set) | 38.937393892836 | -77.268008743851 | 15.2147 | 2025-07-02 21:11:43.197 | in_vehicle | 100 | 13.210010103087 | |
| 73523 | 250702_784902_16652943_1633 | 784902 | (not set) | (not set) | 38.893928763289 | -77.084689720459 | 9.3494 | 2025-07-02 21:11:43.27 | on_foot | 100 | 0.57221025150429 | |
| 73524 | 250702_775422_16642886_1711 | 775422 | (not set) | (not set) | 38.942081651117 | -77.332033179548 | 0.0908 | 2025-07-02 21:11:43.515 | in_vehicle | 100 | 3.5718436793119 | |
| 73525 | 250702_628386_16472336_1710 | 628386 | (not set) | (not set) | 38.8832698 | -77.02354 | 0 | 2025-07-02 21:11:46.082 | still | 100 | 0.084937459207668 | |
| 73526 | 250702_785403_16653539_1706 | 785403 | (not set) | (not set) | 38.9267635 | -77.0593617 | 1.0417 | 2025-07-02 21:11:46.244 | walking | 100 | 2.6241204502579 | |
| 73527 | 250702_784627_16652599_1658 | 784627 | (not set) | (not set) | 38.909425697647 | -77.043699013432 | 0.8275 | 2025-07-02 21:11:47.113 | unknown | 100 | -0.44703925898772 | |
| 73528 | 250702_760011_16626634_1655 | 760011 | (not set) | (not set) | 38.909810376196 | -77.043972588251 | 4.9592 | 2025-07-02 21:11:47.441 | still | 100 | -0.44703925898772 | |
| 73529 | 250702_784108_16653095_1704 | 784108 | (not set) | (not set) | 39.382796493157 | -77.410495684344 | 5.2766 | 2025-07-02 21:11:47.452 | in_vehicle | 100 | 4.953194989584 | |
| 73530 | 250702_783758_16651529_1657 | 783758 | (not set) | (not set) | 38.868111881905 | -77.310924555311 | 3.0355 | 2025-07-02 21:11:48.194 | in_vehicle | 100 | 12.333813155471 | |
| 73531 | 250702_784904_16652945_1634 | 784904 | (not set) | (not set) | 39.224247325208 | -76.709493258072 | 20.3998 | 2025-07-02 21:11:48.286 | in_vehicle | 100 | 6.9335789068996 | |
| 73532 | 250702_760650_16627425_1640 | 760650 | (not set) | (not set) | 39.037190232575 | -77.101835221644 | 10.5477 | 2025-07-02 21:11:49.549 | unknown | 100 | -0.44703925898772 | |
| 73533 | 250702_760650_16627425_1640 | 760650 | (not set) | (not set) | 39.039825253268 | -77.097866838464 | 10.5477 | 2025-07-02 21:11:49.595 | unknown | 100 | -0.44703925898772 | |
| 73534 | 250702_760650_16627425_1640 | 760650 | (not set) | (not set) | 39.046559424932 | -77.109799601881 | 10.5477 | 2025-07-02 21:11:51.182 | unknown | 100 | -0.44703925898772 | |
| 73535 | 250702_785147_16653236_1635 | 785147 | (not set) | (not set) | 38.967227066667 | -77.741188166667 | 19.7106 | 2025-07-02 21:11:51.497 | in_vehicle | 100 | 4.6223859379331 | |
| 73536 | 250702_785347_16653475_1654 | 785347 | (not set) | (not set) | 39.255701 | -76.677068583333 | 4.6548 | 2025-07-02 21:11:51.565 | in_vehicle | 100 | 11.497849741164 | |
| 73537 | 250702_760650_16627425_1640 | 760650 | (not set) | (not set) | 39.048498342781 | -77.11270007312 | 11.8221 | 2025-07-02 21:11:52.08 | unknown | 100 | 5.1945961894374 | |
| 73538 | 250702_786839_16655227_1702 | 786839 | (not set) | (not set) | 39.430527353377 | -76.384835510611 | 7.2853 | 2025-07-02 21:11:53.443 | in_vehicle | 100 | 14.023621554445 | |
| 73539 | 250702_785447_0_1609 | 785447 | (not set) | (not set) | 39.2977270734 | -76.545242222288 | 44.1764 | 2025-07-02 21:11:54.289 | in_vehicle | 100 | 10.724471823116 | |
| 73540 | 250702_769309_16636345_1645 | 769309 | (not set) | (not set) | 38.9397817074 | -77.270650416019 | 15.4324 | 2025-07-02 21:11:55.219 | in_vehicle | 100 | 12.888141836616 |